createdAt,value
2019-05-22T00:02:20.131Z,24.43
2019-05-22T00:04:59.318Z,24.13
2019-05-22T00:07:29.138Z,24.13
2019-05-22T00:10:00.616Z,22.93
2019-05-22T00:12:45.499Z,21.53
2019-05-22T00:15:02.451Z,21.93
2019-05-22T00:17:34.812Z,23.90
2019-05-22T00:20:06.171Z,22.47
2019-05-22T00:22:38.495Z,22.23
2019-05-22T00:25:11.946Z,22.90
2019-05-22T00:27:41.489Z,21.90
2019-05-22T00:30:14.062Z,22.20
2019-05-22T00:32:43.918Z,21.80
2019-05-22T00:35:16.560Z,22.05
2019-05-22T00:37:45.857Z,21.10
2019-05-22T00:40:17.652Z,21.47
2019-05-22T00:43:03.236Z,21.53
2019-05-22T00:45:22.869Z,20.70
2019-05-22T00:47:53.385Z,18.60
2019-05-22T00:50:29.283Z,22.33
2019-05-22T00:53:02.746Z,22.90
2019-05-22T00:55:53.791Z,24.10
2019-05-22T00:58:51.528Z,22.83
2019-05-22T01:01:26.665Z,28.90
2019-05-22T01:03:57.861Z,22.90
2019-05-22T01:06:29.810Z,25.17
2019-05-22T01:09:02.518Z,23.80
2019-05-22T01:11:32.603Z,23.70
2019-05-22T01:14:02.173Z,24.27
2019-05-22T01:16:33.014Z,22.50
2019-05-22T01:19:03.347Z,23.43
2019-05-22T01:21:33.508Z,21.10
2019-05-22T01:24:04.625Z,20.73
2019-05-22T01:26:35.809Z,18.70
2019-05-22T01:29:06.062Z,19.73
2019-05-22T01:31:40.706Z,19.50
2019-05-22T01:34:19.991Z,19.90
2019-05-22T01:36:53.739Z,19.87
2019-05-22T01:39:44.923Z,20.30
2019-05-22T01:42:17.876Z,20.43
2019-05-22T01:45:01.307Z,17.10
2019-05-22T01:47:35.698Z,16.43
2019-05-22T01:50:06.640Z,16.70
2019-05-22T01:52:38.288Z,15.37
2019-05-22T01:55:10.043Z,16.50
2019-05-22T01:57:40.842Z,16.30
2019-05-22T02:00:11.311Z,15.13
2019-05-22T02:02:42.860Z,16.07
2019-05-22T02:05:12.293Z,14.47
2019-05-22T02:07:42.692Z,14.17
2019-05-22T02:10:18.098Z,13.47
2019-05-22T02:12:54.867Z,12.60
2019-05-22T02:15:25.212Z,12.27
2019-05-22T02:17:56.606Z,11.87
2019-05-22T02:20:27.113Z,12.30
2019-05-22T02:22:57.729Z,10.57
2019-05-22T02:25:28.981Z,11.57
2019-05-22T02:27:58.599Z,9.60
2019-05-22T02:30:30.573Z,9.75
2019-05-22T02:33:02.327Z,10.40
2019-05-22T02:35:34.346Z,9.27
2019-05-22T02:38:04.293Z,9.30
2019-05-22T02:40:37.329Z,9.17
2019-05-22T02:43:09.208Z,9.67
2019-05-22T02:45:39.651Z,9.43
2019-05-22T02:48:09.601Z,9.73
2019-05-22T02:50:40.075Z,9.15
2019-05-22T02:53:12.335Z,9.77
2019-05-22T02:55:41.852Z,9.57
2019-05-22T02:58:12.839Z,9.77
2019-05-22T03:00:58.200Z,8.83
2019-05-22T03:03:29.151Z,9.13
2019-05-22T03:06:00.205Z,9.10
2019-05-22T03:08:54.131Z,9.37
2019-05-22T03:11:25.116Z,10.90
2019-05-22T03:14:04.038Z,9.90
2019-05-22T03:16:51.091Z,9.83
2019-05-22T03:19:32.319Z,10.97
2019-05-22T03:22:03.874Z,9.90
2019-05-22T03:24:33.584Z,10.00
2019-05-22T03:27:05.899Z,10.90
2019-05-22T03:29:52.731Z,11.83
2019-05-22T03:32:22.883Z,11.80
2019-05-22T03:34:53.334Z,10.63
2019-05-22T03:37:23.577Z,10.73
2019-05-22T03:39:54.822Z,10.23
2019-05-22T03:42:24.679Z,10.97
2019-05-22T03:44:54.200Z,11.27
2019-05-22T03:47:25.362Z,10.97
2019-05-22T03:49:56.653Z,10.97
2019-05-22T03:52:27.391Z,11.60
2019-05-22T03:54:57.060Z,10.65
2019-05-22T03:57:27.081Z,11.27
2019-05-22T03:59:56.577Z,12.00
2019-05-22T04:02:26.186Z,11.47
2019-05-22T04:04:55.896Z,12.80
2019-05-22T04:07:26.836Z,12.80
2019-05-22T04:09:57.738Z,13.10
2019-05-22T04:12:28.060Z,12.83
2019-05-22T04:15:00.344Z,11.77
2019-05-22T04:17:30.759Z,10.47
2019-05-22T04:20:00.899Z,10.75
2019-05-22T04:22:30.354Z,11.75
2019-05-22T04:25:00.207Z,10.43
2019-05-22T04:27:30.892Z,10.53
2019-05-22T04:30:00.331Z,11.60
2019-05-22T04:32:31.742Z,11.83
2019-05-22T04:35:01.174Z,10.30
2019-05-22T04:37:30.910Z,11.63
2019-05-22T04:40:54.365Z,10.80
2019-05-22T04:43:25.460Z,11.70
2019-05-22T04:45:57.144Z,11.35
2019-05-22T04:48:27.711Z,10.33
2019-05-22T04:50:59.168Z,10.70
2019-05-22T04:53:30.009Z,12.07
2019-05-22T04:56:00.160Z,11.08
2019-05-22T04:58:31.180Z,11.50
2019-05-22T05:01:00.959Z,10.60
2019-05-22T05:03:30.410Z,10.88
2019-05-22T05:06:00.189Z,10.57
2019-05-22T05:08:29.984Z,10.57
2019-05-22T05:11:02.357Z,10.25
2019-05-22T05:13:31.869Z,9.50
2019-05-22T05:16:01.483Z,11.10
2019-05-22T05:18:30.878Z,9.23
2019-05-22T05:21:00.571Z,10.87
2019-05-22T05:23:30.209Z,9.98
2019-05-22T05:25:59.742Z,9.10
2019-05-22T05:28:29.382Z,8.70
2019-05-22T05:30:58.834Z,10.05
2019-05-22T05:33:30.152Z,9.43
2019-05-22T05:35:59.718Z,9.03
2019-05-22T05:38:37.144Z,8.53
2019-05-22T05:41:06.903Z,9.80
2019-05-22T05:43:35.974Z,8.80
2019-05-22T05:46:05.415Z,8.18
2019-05-22T05:48:35.013Z,8.87
2019-05-22T05:51:39.154Z,7.30
2019-05-22T05:54:15.870Z,7.67
2019-05-22T05:56:50.192Z,6.97
2019-05-22T05:59:21.702Z,6.90
2019-05-22T06:01:55.906Z,6.60
2019-05-22T06:04:39.025Z,7.03
2019-05-22T06:07:21.854Z,7.12
2019-05-22T06:10:22.240Z,6.95
2019-05-22T06:12:51.710Z,6.60
2019-05-22T06:15:24.503Z,5.87
2019-05-22T06:18:34.315Z,6.30
2019-05-22T06:21:04.908Z,6.58
2019-05-22T06:24:11.008Z,6.50
2019-05-22T06:27:18.668Z,5.75
2019-05-22T06:30:01.542Z,5.33
2019-05-22T06:33:08.453Z,5.40
2019-05-22T06:35:38.537Z,5.55
2019-05-22T06:38:22.598Z,5.05
2019-05-22T06:40:52.503Z,5.15
2019-05-22T06:44:16.591Z,5.50
2019-05-22T06:46:47.646Z,5.35
2019-05-22T06:49:41.663Z,5.42
2019-05-22T06:52:10.974Z,6.00
2019-05-22T06:54:40.408Z,5.00
2019-05-22T06:57:16.055Z,5.50
2019-05-22T06:59:46.638Z,5.20
2019-05-22T07:02:19.451Z,5.43
2019-05-22T07:04:49.513Z,5.20
2019-05-22T07:07:19.933Z,4.70
2019-05-22T07:09:49.610Z,5.47
2019-05-22T07:12:20.570Z,4.60
2019-05-22T07:15:23.081Z,5.33
2019-05-22T07:17:56.760Z,5.40
2019-05-22T07:20:28.359Z,5.20
2019-05-22T07:23:00.266Z,6.00
2019-05-22T07:25:31.086Z,5.27
2019-05-22T07:28:00.669Z,5.50
2019-05-22T07:30:30.916Z,5.40
2019-05-22T07:33:00.339Z,5.60
2019-05-22T07:35:44.135Z,5.80
2019-05-22T07:38:01.075Z,4.93
2019-05-22T07:40:31.386Z,5.10
2019-05-22T07:43:00.426Z,6.23
2019-05-22T07:45:31.623Z,4.93
2019-05-22T07:48:01.599Z,4.40
2019-05-22T07:50:34.243Z,5.20
2019-05-22T07:53:03.983Z,5.00
2019-05-22T07:55:34.561Z,5.77
2019-05-22T07:58:12.475Z,5.30
2019-05-22T08:00:53.940Z,4.70
2019-05-22T08:03:25.048Z,5.47
2019-05-22T08:05:56.200Z,5.93
2019-05-22T08:08:26.468Z,5.37
2019-05-22T08:10:56.676Z,5.23
2019-05-22T08:13:27.034Z,5.23
2019-05-22T08:15:56.550Z,5.00
2019-05-22T08:18:27.038Z,4.60
2019-05-22T08:20:56.338Z,4.80
2019-05-22T08:23:27.291Z,5.27
2019-05-22T08:25:58.738Z,5.43
2019-05-22T08:28:30.398Z,5.53
2019-05-22T08:31:00.658Z,5.50
2019-05-22T08:33:30.407Z,4.90
2019-05-22T08:35:59.641Z,4.90
2019-05-22T08:38:32.510Z,5.53
2019-05-22T08:41:03.980Z,5.60
2019-05-22T08:43:55.845Z,4.63
2019-05-22T08:46:06.960Z,5.30
2019-05-22T08:48:38.584Z,4.20
2019-05-22T08:51:09.627Z,4.93
2019-05-22T08:53:47.474Z,4.60
2019-05-22T08:56:12.632Z,5.07
2019-05-22T08:58:42.365Z,4.03
2019-05-22T09:01:13.213Z,4.37
2019-05-22T09:03:42.876Z,4.63
2019-05-22T09:06:12.136Z,4.57
2019-05-22T09:08:41.402Z,5.07
2019-05-22T09:11:11.250Z,4.27
2019-05-22T09:13:40.677Z,4.60
2019-05-22T09:16:11.773Z,5.30
2019-05-22T09:18:41.194Z,5.10
2019-05-22T09:21:10.507Z,5.43
2019-05-22T09:23:40.753Z,4.50
2019-05-22T09:26:10.923Z,5.40
2019-05-22T09:28:40.426Z,5.40
2019-05-22T09:31:09.534Z,4.97
2019-05-22T09:33:39.465Z,6.20
2019-05-22T09:36:09.674Z,5.17
2019-05-22T09:38:39.344Z,5.50
2019-05-22T09:41:09.073Z,5.60
2019-05-22T09:43:38.185Z,5.90
2019-05-22T09:46:08.253Z,5.10
2019-05-22T09:48:37.783Z,5.07
2019-05-22T09:51:07.885Z,5.40
2019-05-22T09:53:38.574Z,4.87
2019-05-22T09:56:08.228Z,5.40
2019-05-22T09:58:37.588Z,5.43
2019-05-22T10:01:11.741Z,4.97
2019-05-22T10:03:39.621Z,5.30
2019-05-22T10:06:09.181Z,6.50
2019-05-22T10:08:38.524Z,5.83
2019-05-22T10:11:07.916Z,4.77
2019-05-22T10:13:37.242Z,5.40
2019-05-22T10:16:06.830Z,5.30
2019-05-22T10:18:36.468Z,5.50
2019-05-22T10:21:06.729Z,5.10
2019-05-22T10:23:36.357Z,5.60
2019-05-22T10:26:05.710Z,5.47
2019-05-22T10:28:35.405Z,5.43
2019-05-22T10:31:05.319Z,5.10
2019-05-22T10:33:35.318Z,4.90
2019-05-22T10:36:04.992Z,5.00
2019-05-22T10:38:34.358Z,4.80
2019-05-22T10:41:03.398Z,5.07
2019-05-22T10:43:32.627Z,5.50
2019-05-22T10:46:01.785Z,5.00
2019-05-22T10:48:30.881Z,5.70
2019-05-22T10:51:00.059Z,5.00
2019-05-22T10:53:33.850Z,4.87
2019-05-22T10:56:00.918Z,4.70
2019-05-22T10:58:30.601Z,4.80
2019-05-22T11:01:00.286Z,4.53
2019-05-22T11:03:29.518Z,4.13
2019-05-22T11:06:06.939Z,4.30
2019-05-22T11:08:34.184Z,3.70
2019-05-22T11:11:01.421Z,4.87
2019-05-22T11:13:34.185Z,3.80
2019-05-22T11:16:02.441Z,4.40
2019-05-22T11:18:31.728Z,4.27
2019-05-22T11:21:01.067Z,5.30
2019-05-22T11:23:30.747Z,4.67
2019-05-22T11:26:00.149Z,4.70
2019-05-22T11:28:31.187Z,4.90
2019-05-22T11:31:00.803Z,4.93
2019-05-22T11:33:34.065Z,5.07
2019-05-22T11:36:01.564Z,4.37
2019-05-22T11:38:31.354Z,4.20
2019-05-22T11:41:00.940Z,4.20
2019-05-22T11:43:30.672Z,4.00
2019-05-22T11:45:59.791Z,3.90
2019-05-22T11:48:29.318Z,3.03
2019-05-22T11:51:01.034Z,4.07
2019-05-22T11:53:30.294Z,4.30
2019-05-22T11:55:59.374Z,4.43
2019-05-22T11:58:28.522Z,4.60
2019-05-22T12:00:57.600Z,3.80
2019-05-22T12:03:26.945Z,4.70
2019-05-22T12:05:56.117Z,4.47
2019-05-22T12:08:26.655Z,4.67
2019-05-22T12:10:55.712Z,4.00
2019-05-22T12:13:25.029Z,4.77
2019-05-22T12:15:56.125Z,4.27
2019-05-22T12:18:26.916Z,4.10
2019-05-22T12:20:56.125Z,4.43
2019-05-22T12:23:25.668Z,4.50
2019-05-22T12:25:54.998Z,5.37
2019-05-22T12:28:24.591Z,4.43
2019-05-22T12:30:54.018Z,4.63
2019-05-22T12:33:23.406Z,4.80
2019-05-22T12:35:52.940Z,5.13
2019-05-22T12:38:26.745Z,5.60
2019-05-22T12:40:54.627Z,4.80
2019-05-22T12:43:24.544Z,4.50
2019-05-22T12:45:53.608Z,5.50
2019-05-22T12:48:22.901Z,5.10
2019-05-22T12:50:51.967Z,4.73
2019-05-22T12:53:22.361Z,5.13
2019-05-22T12:55:51.625Z,5.07
2019-05-22T12:58:20.836Z,4.33
2019-05-22T13:00:51.009Z,5.30
2019-05-22T13:03:21.197Z,4.63
2019-05-22T13:05:50.596Z,4.70
2019-05-22T13:08:21.422Z,4.13
2019-05-22T13:10:52.307Z,5.40
2019-05-22T13:13:21.964Z,4.93
2019-05-22T13:15:52.035Z,5.90
2019-05-22T13:18:21.830Z,5.73
2019-05-22T13:20:52.896Z,4.80
2019-05-22T13:23:26.812Z,4.63
2019-05-22T13:25:56.269Z,4.33
2019-05-22T13:28:27.860Z,4.53
2019-05-22T13:30:58.281Z,4.73
2019-05-22T13:33:29.325Z,5.20
2019-05-22T13:35:59.503Z,5.13
2019-05-22T13:38:28.827Z,5.20
2019-05-22T13:40:58.243Z,5.00
2019-05-22T13:43:28.728Z,5.10
2019-05-22T13:45:57.893Z,5.53
2019-05-22T13:48:27.296Z,5.73
2019-05-22T13:50:57.868Z,5.30
2019-05-22T13:53:27.861Z,4.93
2019-05-22T13:55:57.489Z,5.13
2019-05-22T13:58:27.583Z,5.43
2019-05-22T14:00:57.068Z,5.93
2019-05-22T14:03:27.153Z,5.70
2019-05-22T14:05:57.923Z,6.00
2019-05-22T14:08:27.275Z,4.87
2019-05-22T14:10:56.557Z,5.47
2019-05-22T14:13:27.001Z,6.43
2019-05-22T14:15:57.407Z,5.80
2019-05-22T14:18:27.337Z,5.50
2019-05-22T14:20:56.957Z,4.87
2019-05-22T14:23:26.011Z,6.10
2019-05-22T14:25:55.524Z,5.70
2019-05-22T14:28:27.310Z,6.33
2019-05-22T14:30:56.924Z,5.10
2019-05-22T14:33:28.217Z,5.63
2019-05-22T14:35:57.764Z,5.10
2019-05-22T14:38:27.387Z,6.27
2019-05-22T14:40:57.235Z,5.97
2019-05-22T14:43:26.821Z,6.70
2019-05-22T14:45:56.309Z,5.93
2019-05-22T14:48:25.660Z,5.93
2019-05-22T14:50:54.758Z,5.00
2019-05-22T14:53:24.050Z,6.87
2019-05-22T14:55:53.915Z,5.80
2019-05-22T14:58:23.975Z,6.13
2019-05-22T15:00:53.936Z,6.10
2019-05-22T15:03:24.016Z,6.10
2019-05-22T15:05:54.151Z,4.30
2019-05-22T15:08:24.011Z,4.30
2019-05-22T15:10:53.314Z,4.70
2019-05-22T15:13:23.139Z,4.93
2019-05-22T15:15:52.534Z,4.90
2019-05-22T15:18:21.599Z,5.13
2019-05-22T15:20:56.469Z,5.57
2019-05-22T15:23:25.998Z,5.20
2019-05-22T15:25:55.003Z,5.40
2019-05-22T15:28:26.917Z,5.63
2019-05-22T15:30:55.724Z,4.80
2019-05-22T15:33:25.868Z,4.60
2019-05-22T15:35:55.776Z,5.73
2019-05-22T15:38:25.408Z,6.40
2019-05-22T15:40:55.525Z,5.40
2019-05-22T15:43:27.060Z,5.63
2019-05-22T15:45:58.639Z,4.90
2019-05-22T15:48:31.383Z,4.60
2019-05-22T15:51:06.525Z,5.90
2019-05-22T15:53:38.003Z,6.33
2019-05-22T15:56:09.371Z,5.60
2019-05-22T15:58:42.607Z,5.87
2019-05-22T16:01:16.406Z,5.40
2019-05-22T16:03:47.815Z,5.10
2019-05-22T16:06:18.291Z,5.93
2019-05-22T16:08:48.251Z,5.47
2019-05-22T16:11:18.719Z,6.43
2019-05-22T16:13:49.052Z,5.70
2019-05-22T16:16:21.893Z,6.43
2019-05-22T16:18:53.058Z,5.83
2019-05-22T16:21:22.696Z,5.57
2019-05-22T16:23:52.891Z,6.37
2019-05-22T16:26:23.026Z,5.37
2019-05-22T16:28:52.564Z,7.20
2019-05-22T16:31:22.480Z,6.10
2019-05-22T16:33:53.488Z,6.97
2019-05-22T16:36:23.981Z,6.30
2019-05-22T16:38:54.623Z,7.50
2019-05-22T16:41:25.763Z,7.23
2019-05-22T16:43:55.899Z,7.60
2019-05-22T16:46:25.624Z,6.17
2019-05-22T16:48:54.760Z,6.83
2019-05-22T16:51:24.935Z,6.80
2019-05-22T16:53:56.812Z,6.70
2019-05-22T16:56:27.613Z,6.73
2019-05-22T16:58:57.263Z,7.53
2019-05-22T17:01:27.925Z,6.87
2019-05-22T17:04:02.336Z,7.37
2019-05-22T17:06:32.288Z,7.63
2019-05-22T17:09:04.376Z,8.43
2019-05-22T17:11:33.775Z,7.90
2019-05-22T17:14:04.464Z,7.20
2019-05-22T17:16:37.042Z,7.80
2019-05-22T17:19:23.710Z,7.70
2019-05-22T17:21:39.411Z,8.37
2019-05-22T17:24:10.571Z,7.30
2019-05-22T17:26:40.485Z,6.60
2019-05-22T17:29:11.386Z,8.03
2019-05-22T17:31:41.104Z,6.10
2019-05-22T17:34:28.238Z,7.73
2019-05-22T17:36:58.148Z,7.73
2019-05-22T17:39:28.995Z,7.20
2019-05-22T17:41:59.961Z,8.10
2019-05-22T17:44:29.851Z,7.93
2019-05-22T17:46:59.330Z,7.53
2019-05-22T17:49:29.222Z,8.97
2019-05-22T17:52:00.369Z,8.23
2019-05-22T17:54:29.923Z,10.00
2019-05-22T17:56:59.739Z,9.00
2019-05-22T17:59:28.803Z,9.40
2019-05-22T18:01:58.170Z,7.73
2019-05-22T18:04:27.602Z,9.33
2019-05-22T18:06:56.847Z,8.40
2019-05-22T18:09:26.790Z,8.13
2019-05-22T18:11:56.007Z,8.80
2019-05-22T18:14:25.524Z,8.00
2019-05-22T18:16:54.771Z,8.30
2019-05-22T18:19:24.217Z,8.27
2019-05-22T18:21:53.647Z,10.80
2019-05-22T18:24:23.120Z,7.50
2019-05-22T18:26:52.381Z,8.60
2019-05-22T18:29:21.353Z,7.43
2019-05-22T18:31:51.025Z,7.80
2019-05-22T18:34:20.064Z,8.60
2019-05-22T18:36:49.259Z,7.50
2019-05-22T18:39:19.083Z,8.20
2019-05-22T18:41:48.157Z,9.20
2019-05-22T18:44:17.307Z,9.30
2019-05-22T18:46:46.376Z,9.10
2019-05-22T18:49:15.329Z,8.87
2019-05-22T18:51:44.867Z,7.47
2019-05-22T18:54:14.103Z,9.10
2019-05-22T18:56:43.432Z,7.40
2019-05-22T18:59:12.690Z,8.90
2019-05-22T19:01:41.919Z,8.27
2019-05-22T19:04:11.627Z,8.73
2019-05-22T19:06:41.128Z,8.33
2019-05-22T19:09:11.568Z,8.07
2019-05-22T19:11:41.070Z,8.30
2019-05-22T19:14:11.393Z,9.33
2019-05-22T19:16:40.894Z,7.80
2019-05-22T19:19:10.402Z,9.97
2019-05-22T19:21:40.210Z,8.80
2019-05-22T19:24:09.874Z,9.53
2019-05-22T19:26:39.608Z,9.23
2019-05-22T19:29:09.279Z,9.33
2019-05-22T19:31:38.795Z,10.00
2019-05-22T19:34:08.660Z,10.53
2019-05-22T19:36:38.782Z,11.70
2019-05-22T19:39:09.826Z,13.00
2019-05-22T19:41:39.535Z,14.60
2019-05-22T19:44:09.459Z,13.43
2019-05-22T19:46:38.969Z,13.03
2019-05-22T19:49:08.629Z,12.37
2019-05-22T19:51:39.597Z,13.17
2019-05-22T19:54:09.199Z,13.73
2019-05-22T19:56:39.360Z,13.63
2019-05-22T19:59:10.479Z,12.37
2019-05-22T20:01:40.800Z,10.83
2019-05-22T20:04:11.156Z,12.40
2019-05-22T20:06:41.068Z,11.50
2019-05-22T20:09:11.876Z,10.20
2019-05-22T20:11:41.947Z,10.40
2019-05-22T20:14:11.702Z,10.03
2019-05-22T20:16:41.795Z,10.23
2019-05-22T20:19:12.252Z,12.80
2019-05-22T20:21:51.281Z,12.37
2019-05-22T20:24:21.723Z,12.23
2019-05-22T20:26:51.483Z,13.33
2019-05-22T20:29:22.075Z,12.87
2019-05-22T20:31:51.611Z,13.60
2019-05-22T20:34:21.404Z,13.93
2019-05-22T20:36:50.780Z,13.00
2019-05-22T20:39:20.842Z,12.97
2019-05-22T20:41:51.615Z,15.50
2019-05-22T20:44:22.873Z,14.63
2019-05-22T20:46:53.299Z,16.00
2019-05-22T20:49:23.314Z,17.00
2019-05-22T20:51:54.920Z,15.67
2019-05-22T20:54:24.789Z,15.70
2019-05-22T20:56:54.897Z,16.70
2019-05-22T20:59:25.340Z,17.17
2019-05-22T21:01:55.487Z,16.47
2019-05-22T21:04:33.426Z,16.77
2019-05-22T21:07:03.166Z,18.40
2019-05-22T21:09:34.308Z,16.03
2019-05-22T21:12:04.787Z,18.37
2019-05-22T21:14:34.968Z,17.63
2019-05-22T21:17:05.083Z,17.60
2019-05-22T21:19:35.368Z,17.90
2019-05-22T21:22:06.766Z,16.10
2019-05-22T21:24:37.422Z,17.13
2019-05-22T21:27:09.388Z,18.90
2019-05-22T21:29:39.649Z,19.80
2019-05-22T21:32:10.564Z,18.63
2019-05-22T21:34:41.636Z,18.77
2019-05-22T21:37:14.434Z,18.57
2019-05-22T21:39:44.171Z,17.10
2019-05-22T21:42:15.353Z,17.13
2019-05-22T21:44:45.254Z,17.07
2019-05-22T21:47:14.779Z,18.67
2019-05-22T21:49:55.485Z,17.13
2019-05-22T21:52:26.319Z,18.10
2019-05-22T21:54:59.296Z,18.23
2019-05-22T21:57:29.774Z,17.53
2019-05-22T21:59:59.676Z,17.30
2019-05-22T22:02:40.056Z,15.90
2019-05-22T22:05:11.051Z,16.90
2019-05-22T22:07:41.954Z,16.83
2019-05-22T22:10:14.563Z,16.77
2019-05-22T22:12:45.608Z,17.30
2019-05-22T22:15:16.178Z,15.87
2019-05-22T22:17:48.960Z,15.37
2019-05-22T22:20:18.863Z,17.33
2019-05-22T22:22:50.517Z,15.70
2019-05-22T22:25:22.357Z,16.63
2019-05-22T22:27:55.369Z,15.10
2019-05-22T22:30:30.406Z,16.80
2019-05-22T22:33:02.058Z,16.53
2019-05-22T22:35:32.782Z,17.77
2019-05-22T22:38:04.827Z,16.43
2019-05-22T22:40:37.407Z,17.77
2019-05-22T22:43:08.041Z,17.10
2019-05-22T22:45:58.948Z,16.77
2019-05-22T22:48:32.262Z,17.17
2019-05-22T22:51:06.355Z,15.87
2019-05-22T22:53:37.205Z,16.17
2019-05-22T22:56:09.250Z,17.33
2019-05-22T22:58:41.213Z,18.30
2019-05-22T23:01:15.128Z,16.03
2019-05-22T23:03:48.218Z,17.53
2019-05-22T23:06:18.439Z,17.20
2019-05-22T23:08:49.177Z,17.43
2019-05-22T23:11:21.650Z,15.90
2019-05-22T23:13:52.984Z,16.90
2019-05-22T23:16:24.055Z,17.53
2019-05-22T23:19:32.351Z,17.17
2019-05-22T23:22:17.349Z,17.83
2019-05-22T23:24:47.004Z,16.60
2019-05-22T23:27:17.740Z,17.60
2019-05-22T23:29:46.918Z,16.73
2019-05-22T23:32:17.686Z,17.60
2019-05-22T23:34:47.254Z,17.67
2019-05-22T23:37:17.678Z,16.83
2019-05-22T23:39:48.227Z,17.90
2019-05-22T23:42:21.015Z,18.33
2019-05-22T23:44:53.288Z,17.57
2019-05-22T23:47:23.944Z,18.63
2019-05-22T23:49:53.638Z,19.70
2019-05-22T23:52:23.025Z,16.70
2019-05-22T23:54:53.872Z,16.40
2019-05-22T23:57:23.979Z,16.87
